Time;durP1;ratioP1;P1;durP2;ratioP2;P2;SDS_P1;SDS_P2;PMS_P1;PMS_P2;Temp;Humidity;BMP_temperature;BMP_pressure;BME280_temperature;BME280_humidity;BME280_pressure;Samples;Min_cycle;Max_cycle;Signal;HPM_P1;HPM_P2
2020/12/15 00:00:25;;;;;;;31.47;11.33;;;5.90;96.80;;;;;;5042094;28;20176;-85
2020/12/15 00:02:51;;;;;;;30.40;11.03;;;5.90;97.00;;;;;;5041139;28;20454;-85
2020/12/15 00:05:17;;;;;;;31.43;13.23;;;5.90;96.90;;;;;;5040942;28;20434;-86
2020/12/15 00:07:43;;;;;;;28.60;12.03;;;5.90;96.80;;;;;;5040982;28;20180;-84
2020/12/15 00:10:08;;;;;;;39.37;12.80;;;5.90;97.00;;;;;;5040695;28;20465;-86
2020/12/15 00:12:34;;;;;;;37.17;13.67;;;5.80;97.50;;;;;;5041331;28;20180;-85
2020/12/15 00:15:00;;;;;;;31.33;14.50;;;5.90;97.60;;;;;;5040650;28;20193;-86
2020/12/15 00:17:25;;;;;;;28.20;12.40;;;5.90;97.40;;;;;;5040139;28;20243;-85
2020/12/15 00:19:51;;;;;;;40.07;15.33;;;5.90;97.30;;;;;;5040095;28;20645;-85
2020/12/15 00:22:17;;;;;;;29.50;12.97;;;5.90;97.30;;;;;;5062190;28;20176;-83
2020/12/15 00:24:44;;;;;;;35.80;14.70;;;5.90;97.00;;;;;;5045065;28;20203;-83
2020/12/15 00:27:10;;;;;;;29.58;13.63;;;5.90;97.00;;;;;;5045628;28;20411;-83
2020/12/15 00:29:36;;;;;;;33.22;12.60;;;5.90;97.10;;;;;;5045573;28;20751;-83
2020/12/15 00:32:03;;;;;;;28.10;12.80;;;5.90;97.00;;;;;;5044524;28;20237;-82
2020/12/15 00:34:29;;;;;;;21.88;11.25;;;5.90;97.00;;;;;;5045487;28;20478;-83
2020/12/15 00:36:58;;;;;;;26.77;12.50;;;5.80;97.40;;;;;;5043996;28;20197;-82
2020/12/15 00:39:24;;;;;;;26.70;11.70;;;5.80;97.50;;;;;;5043076;28;20416;-82
2020/12/15 00:41:50;;;;;;;27.23;12.80;;;5.80;97.50;;;;;;5043074;28;20235;-82
2020/12/15 00:44:16;;;;;;;28.83;11.93;;;5.80;97.60;;;;;;5043088;28;20990;-82
2020/12/15 00:46:42;;;;;;;41.05;13.90;;;5.90;97.30;;;;;;5042990;28;20197;-82
2020/12/15 00:49:08;;;;;;;23.00;11.67;;;5.90;97.10;;;;;;5043122;28;20178;-82
2020/12/15 00:51:34;;;;;;;33.35;12.00;;;5.80;97.30;;;;;;5047009;28;20241;-82
2020/12/15 00:54:00;;;;;;;25.40;11.87;;;5.80;97.30;;;;;;5041883;28;20201;-81
2020/12/15 00:56:26;;;;;;;25.50;9.50;;;5.80;97.30;;;;;;5042852;28;20197;-84
2020/12/15 00:58:51;;;;;;;28.63;11.60;;;5.80;97.30;;;;;;5043230;28;20176;-82
2020/12/15 01:01:17;;;;;;;21.57;11.20;;;5.80;96.90;;;;;;5042643;28;20224;-82
2020/12/15 01:03:43;;;;;;;23.50;10.80;;;5.90;97.30;;;;;;5042771;28;20189;-82
2020/12/15 01:06:09;;;;;;;25.13;11.30;;;5.90;97.00;;;;;;5042930;28;20197;-83
2020/12/15 01:08:35;;;;;;;22.67;11.10;;;5.90;97.00;;;;;;5041409;28;20418;-83
2020/12/15 01:11:01;;;;;;;28.03;12.43;;;6.00;96.90;;;;;;5041187;28;20248;-83
2020/12/15 01:13:27;;;;;;;36.23;11.00;;;6.00;96.90;;;;;;5106603;23;20311;-81
2020/12/15 01:15:52;;;;;;;30.13;11.30;;;6.00;96.80;;;;;;5036213;28;20526;-82
2020/12/15 01:18:18;;;;;;;28.43;11.53;;;6.00;96.80;;;;;;5036631;28;20173;-82
2020/12/15 01:20:44;;;;;;;24.63;11.33;;;6.00;96.80;;;;;;5036515;28;20447;-82
2020/12/15 01:23:10;;;;;;;26.23;11.00;;;6.00;96.60;;;;;;5036605;28;20479;-82
2020/12/15 01:25:35;;;;;;;32.27;11.67;;;6.00;96.80;;;;;;5036252;28;20424;-82
2020/12/15 01:28:01;;;;;;;26.70;12.10;;;6.00;96.60;;;;;;5036475;28;20287;-81
2020/12/15 01:30:27;;;;;;;26.97;12.70;;;6.10;96.40;;;;;;5036199;28;20169;-81
2020/12/15 01:32:52;;;;;;;21.60;10.70;;;6.10;96.60;;;;;;5036375;28;20176;-82
2020/12/15 01:35:18;;;;;;;26.70;10.57;;;6.10;96.70;;;;;;5036429;28;20185;-82
2020/12/15 01:37:46;;;;;;;31.33;12.40;;;6.00;96.60;;;;;;5036623;28;20205;-82
2020/12/15 01:40:12;;;;;;;24.73;12.80;;;6.00;96.70;;;;;;5036528;28;20170;-82
2020/12/15 01:42:38;;;;;;;28.25;12.57;;;6.00;96.80;;;;;;5036135;28;20177;-82
2020/12/15 01:45:05;;;;;;;29.53;13.27;;;6.00;96.80;;;;;;5035676;28;20229;-81
2020/12/15 01:47:31;;;;;;;29.65;12.48;;;6.10;96.60;;;;;;5035384;28;20903;-82
2020/12/15 01:49:57;;;;;;;26.67;11.90;;;6.10;96.60;;;;;;5035917;28;20176;-82
2020/12/15 01:52:24;;;;;;;33.92;13.77;;;6.10;96.80;;;;;;5035959;28;20705;-81
2020/12/15 01:54:50;;;;;;;31.70;13.27;;;6.10;96.90;;;;;;5036028;28;20626;-81
2020/12/15 01:57:17;;;;;;;27.70;10.93;;;6.20;96.50;;;;;;5036292;28;20177;-81
2020/12/15 01:59:42;;;;;;;25.10;12.10;;;6.20;96.40;;;;;;5036221;28;20177;-82
2020/12/15 02:02:08;;;;;;;27.47;13.10;;;6.30;96.30;;;;;;5035940;28;20180;-82
2020/12/15 02:04:38;;;;;;;27.03;12.33;;;6.30;96.20;;;;;;5035866;28;20458;-81
2020/12/15 02:07:04;;;;;;;33.50;12.68;;;6.30;96.30;;;;;;5039446;28;20161;-82
2020/12/15 02:09:30;;;;;;;28.67;12.03;;;6.40;96.00;;;;;;5035992;28;20540;-81
2020/12/15 02:11:57;;;;;;;30.02;12.05;;;6.40;96.00;;;;;;5035739;28;20415;-82
2020/12/15 02:14:23;;;;;;;32.60;11.20;;;6.50;95.90;;;;;;5035989;28;20187;-82
2020/12/15 02:16:50;;;;;;;25.47;10.40;;;6.50;95.80;;;;;;5035814;28;20197;-84
2020/12/15 02:19:17;;;;;;;24.50;11.82;;;6.50;95.70;;;;;;5036094;28;20514;-84
2020/12/15 02:22:00;;;;;;;27.92;11.82;;;6.50;95.60;;;;;;5035814;28;20184;-84
2020/12/15 02:24:26;;;;;;;20.20;10.55;;;6.50;95.50;;;;;;5036085;28;20270;-84
2020/12/15 02:26:53;;;;;;;24.63;11.05;;;6.50;95.60;;;;;;5035889;28;20185;-84
2020/12/15 02:29:19;;;;;;;25.00;12.40;;;6.50;95.80;;;;;;5035801;28;20224;-84
2020/12/15 02:31:45;;;;;;;29.15;11.30;;;6.50;95.90;;;;;;5035719;28;20170;-84
2020/12/15 02:34:11;;;;;;;27.55;11.20;;;6.40;95.80;;;;;;5035076;28;20247;-85
2020/12/15 02:36:37;;;;;;;21.40;10.32;;;6.50;95.80;;;;;;5035925;28;20216;-84
2020/12/15 02:39:08;;;;;;;28.13;10.43;;;6.40;95.60;;;;;;5036226;28;20220;-85
2020/12/15 02:41:34;;;;;;;21.00;10.70;;;6.40;95.90;;;;;;5036261;28;20911;-84
2020/12/15 02:44:00;;;;;;;28.05;11.15;;;6.40;95.80;;;;;;5039399;28;20197;-84
2020/12/15 02:46:26;;;;;;;26.50;12.03;;;6.30;96.00;;;;;;5039934;28;20193;-84
2020/12/15 02:48:54;;;;;;;21.20;11.40;;;6.30;96.30;;;;;;5039826;28;20451;-84
2020/12/15 02:51:21;;;;;;;20.45;10.15;;;6.30;96.40;;;;;;5039658;28;20548;-84
2020/12/15 02:53:46;;;;;;;20.35;10.65;;;6.20;96.30;;;;;;5039181;28;20260;-84
2020/12/15 02:56:38;;;;;;;25.93;11.13;;;6.20;96.50;;;;;;5039512;28;20635;-85
2020/12/15 02:59:04;;;;;;;32.17;12.55;;;6.10;96.80;;;;;;5038682;28;20453;-82
2020/12/15 03:01:30;;;;;;;28.17;12.43;;;6.10;97.00;;;;;;5042243;28;20209;-82
2020/12/15 03:03:56;;;;;;;22.70;10.53;;;6.10;97.20;;;;;;5042680;28;20860;-83
2020/12/15 03:06:21;;;;;;;19.07;10.13;;;6.10;97.10;;;;;;5042127;28;20840;-83
2020/12/15 03:08:47;;;;;;;21.50;10.90;;;6.10;97.00;;;;;;5041743;28;20426;-83
2020/12/15 03:11:13;;;;;;;23.27;10.50;;;6.20;97.00;;;;;;5041610;28;20632;-83
2020/12/15 03:13:39;;;;;;;26.70;11.70;;;6.20;97.10;;;;;;5043643;28;20203;-83
2020/12/15 03:16:04;;;;;;;25.43;11.07;;;6.10;97.00;;;;;;5041381;28;20850;-83
2020/12/15 03:18:30;;;;;;;23.17;10.63;;;6.10;97.10;;;;;;5041225;28;20625;-83
2020/12/15 03:20:56;;;;;;;29.00;11.17;;;6.10;97.20;;;;;;5040946;28;20242;-82
2020/12/15 03:23:22;;;;;;;22.27;10.70;;;6.20;97.20;;;;;;5040847;28;20822;-83
2020/12/15 03:25:52;;;;;;;21.83;10.63;;;6.10;97.30;;;;;;5040727;28;20354;-83
2020/12/15 03:28:19;;;;;;;28.38;12.13;;;6.10;97.30;;;;;;5041280;28;20170;-83
2020/12/15 03:30:45;;;;;;;31.10;13.25;;;6.00;97.70;;;;;;5040851;28;20177;-83
2020/12/15 03:33:11;;;;;;;25.80;11.77;;;6.10;98.00;;;;;;5039781;28;20181;-83
2020/12/15 03:35:46;;;;;;;31.83;13.67;;;6.10;98.00;;;;;;5039101;28;20471;-83
2020/12/15 03:38:12;;;;;;;28.58;12.88;;;6.20;97.70;;;;;;5039473;28;20636;-83
2020/12/15 03:40:38;;;;;;;24.47;11.23;;;6.20;97.80;;;;;;5040008;28;20181;-83
2020/12/15 03:43:04;;;;;;;26.50;10.90;;;6.20;97.70;;;;;;5040035;28;20411;-83
2020/12/15 03:45:30;;;;;;;22.97;11.07;;;6.20;97.40;;;;;;5041220;28;20435;-83
2020/12/15 03:47:57;;;;;;;20.92;11.20;;;6.30;97.40;;;;;;5040797;28;20411;-83
2020/12/15 03:50:22;;;;;;;22.15;10.88;;;6.30;97.00;;;;;;5041226;28;20181;-83
2020/12/15 03:52:48;;;;;;;21.20;9.53;;;6.30;96.40;;;;;;5040101;28;20307;-83
2020/12/15 03:55:14;;;;;;;29.83;10.03;;;6.40;96.40;;;;;;5039049;28;20197;-83
2020/12/15 03:57:40;;;;;;;23.27;9.47;;;6.50;95.80;;;;;;5040219;28;20412;-83
2020/12/15 04:00:06;;;;;;;19.70;9.40;;;6.50;95.50;;;;;;5041426;28;20183;-83
2020/12/15 04:02:32;;;;;;;16.52;8.50;;;6.60;94.70;;;;;;5041229;28;20408;-85
2020/12/15 04:04:58;;;;;;;23.07;9.70;;;6.60;95.10;;;;;;5042713;28;20255;-83
2020/12/15 04:07:24;;;;;;;19.70;8.23;;;6.60;95.00;;;;;;5043705;28;20252;-83
2020/12/15 04:09:50;;;;;;;18.63;9.40;;;6.60;95.20;;;;;;5043771;28;20172;-83
2020/12/15 04:12:16;;;;;;;12.87;6.67;;;6.60;94.80;;;;;;5044304;28;20193;-82
2020/12/15 04:14:42;;;;;;;19.43;8.50;;;6.70;94.40;;;;;;5043308;28;20444;-82
2020/12/15 04:17:11;;;;;;;18.42;9.68;;;6.70;94.20;;;;;;5042880;28;20430;-83
2020/12/15 04:19:37;;;;;;;23.73;10.07;;;6.70;94.30;;;;;;5043919;28;20174;-83
2020/12/15 04:22:04;;;;;;;19.55;9.10;;;6.70;94.50;;;;;;5044405;28;20173;-83
2020/12/15 04:24:30;;;;;;;18.90;8.80;;;6.60;94.70;;;;;;5044749;28;20224;-85
2020/12/15 04:26:57;;;;;;;16.52;8.38;;;6.60;94.20;;;;;;5042247;28;20196;-82
2020/12/15 04:29:23;;;;;;;20.90;10.00;;;6.70;94.40;;;;;;5040292;28;20714;-82
2020/12/15 04:31:49;;;;;;;21.33;8.80;;;6.70;94.70;;;;;;5038981;28;20215;-82
2020/12/15 04:34:15;;;;;;;23.45;9.57;;;6.70;94.80;;;;;;5038697;28;20788;-83
2020/12/15 04:36:40;;;;;;;23.40;8.38;;;6.70;95.00;;;;;;5039216;28;20197;-83
2020/12/15 04:39:06;;;;;;;28.13;11.87;;;6.60;95.10;;;;;;5055812;28;20177;-83
2020/12/15 04:41:33;;;;;;;25.27;10.80;;;6.60;95.60;;;;;;5039003;28;20173;-83
2020/12/15 04:44:00;;;;;;;21.08;10.68;;;6.60;95.80;;;;;;5039006;28;20448;-82
2020/12/15 04:46:28;;;;;;;22.08;9.88;;;6.50;95.80;;;;;;5039240;28;20681;-82
2020/12/15 04:49:08;;;;;;;25.38;10.55;;;6.50;95.70;;;;;;5037888;28;20177;-83
2020/12/15 04:51:46;;;;;;;23.73;11.73;;;6.60;95.80;;;;;;5038775;28;20169;-83
2020/12/15 04:54:16;;;;;;;23.98;11.88;;;6.50;95.50;;;;;;5039331;28;20538;-82
2020/12/15 04:56:44;;;;;;;28.83;10.90;;;6.60;95.60;;;;;;5038817;28;20193;-82
2020/12/15 04:59:12;;;;;;;19.60;10.60;;;6.60;95.30;;;;;;5038488;28;20185;-82
2020/12/15 05:01:40;;;;;;;28.58;10.18;;;6.70;95.30;;;;;;5038015;28;20378;-82
2020/12/15 05:04:08;;;;;;;15.48;9.20;;;6.80;95.00;;;;;;5038466;28;20196;-82
2020/12/15 05:06:38;;;;;;;25.60;8.38;;;6.80;94.50;;;;;;5038199;28;20197;-82
2020/12/15 05:09:04;;;;;;;17.48;8.25;;;6.70;94.70;;;;;;5038804;28;20665;-82
2020/12/15 05:11:29;;;;;;;15.02;8.50;;;6.70;94.80;;;;;;5038639;28;20197;-82
2020/12/15 05:13:55;;;;;;;24.20;8.70;;;6.70;94.50;;;;;;5038569;28;20643;-82
2020/12/15 05:16:21;;;;;;;15.85;8.82;;;6.70;94.60;;;;;;5038211;28;20192;-82
2020/12/15 05:18:47;;;;;;;20.60;10.80;;;6.80;94.40;;;;;;5038477;28;20177;-82
2020/12/15 05:21:17;;;;;;;22.20;9.40;;;6.90;93.80;;;;;;5038125;28;20177;-83
2020/12/15 05:23:49;;;;;;;30.48;9.40;;;6.90;93.70;;;;;;5038511;28;20205;-82
2020/12/15 05:26:25;;;;;;;15.55;8.98;;;6.90;93.50;;;;;;5037665;28;20194;-83
2020/12/15 05:29:08;;;;;;;17.52;9.90;;;6.90;93.60;;;;;;5038198;28;20251;-83
2020/12/15 05:31:40;;;;;;;19.85;10.40;;;6.80;93.80;;;;;;5038230;28;20183;-83
2020/12/15 05:34:10;;;;;;;27.60;10.60;;;6.80;94.30;;;;;;5038305;28;20173;-82
2020/12/15 05:36:47;;;;;;;22.38;9.52;;;6.70;94.00;;;;;;5037945;28;20193;-82
2020/12/15 05:39:13;;;;;;;15.90;8.63;;;6.70;94.40;;;;;;5038243;28;20180;-82
2020/12/15 05:41:39;;;;;;;19.20;7.63;;;6.70;94.30;;;;;;5037918;28;20173;-83
2020/12/15 05:44:06;;;;;;;14.40;8.00;;;6.70;94.10;;;;;;5037813;28;20454;-83
2020/12/15 05:46:33;;;;;;;21.33;9.00;;;6.60;94.20;;;;;;5037468;28;20428;-83
2020/12/15 05:49:06;;;;;;;20.02;10.30;;;6.60;94.40;;;;;;5037461;28;20177;-83
2020/12/15 05:51:43;;;;;;;20.30;7.70;;;6.50;94.50;;;;;;5037385;28;20696;-83
2020/12/15 05:54:13;;;;;;;18.05;8.73;;;6.50;94.70;;;;;;5036664;28;20176;-83
2020/12/15 05:56:41;;;;;;;13.02;7.20;;;6.40;94.70;;;;;;5036754;28;20193;-82
2020/12/15 05:59:20;;;;;;;16.70;7.90;;;6.50;94.80;;;;;;5036794;28;20181;-83
2020/12/15 06:01:49;;;;;;;19.33;8.40;;;6.50;94.50;;;;;;5036367;28;20196;-83
2020/12/15 06:04:15;;;;;;;21.67;7.75;;;6.60;94.00;;;;;;5036477;28;20237;-83
2020/12/15 06:06:42;;;;;;;15.43;8.37;;;6.60;94.10;;;;;;5036447;28;20201;-83
2020/12/15 06:09:12;;;;;;;15.57;7.75;;;6.60;94.20;;;;;;5035479;28;20423;-83
2020/12/15 06:11:46;;;;;;;18.98;8.70;;;6.70;93.70;;;;;;5035692;28;20556;-83
2020/12/15 06:14:13;;;;;;;21.55;9.18;;;6.70;93.90;;;;;;5035979;28;20200;-83
2020/12/15 06:16:40;;;;;;;17.33;8.05;;;6.70;93.30;;;;;;5036413;28;20209;-83
2020/12/15 06:19:10;;;;;;;19.83;9.18;;;6.70;93.40;;;;;;5040366;28;20546;-83
2020/12/15 06:21:46;;;;;;;24.35;8.57;;;6.70;93.00;;;;;;5040345;28;20203;-83
2020/12/15 06:24:24;;;;;;;22.83;8.27;;;6.70;93.40;;;;;;5040069;28;20242;-83
2020/12/15 06:26:55;;;;;;;30.85;9.13;;;6.60;93.90;;;;;;5040522;28;20664;-83
2020/12/15 06:29:30;;;;;;;23.10;9.68;;;6.60;94.00;;;;;;5040076;28;20165;-83
2020/12/15 06:31:56;;;;;;;26.58;8.55;;;6.60;94.40;;;;;;5039690;28;20709;-83
2020/12/15 06:34:32;;;;;;;20.45;9.50;;;6.70;94.40;;;;;;5048591;28;20553;-80
2020/12/15 06:36:59;;;;;;;12.93;7.82;;;6.70;94.20;;;;;;5048861;28;20287;-81
2020/12/15 06:39:27;;;;;;;19.80;8.57;;;6.70;94.30;;;;;;5048983;28;20212;-80
2020/12/15 06:42:03;;;;;;;17.17;8.75;;;6.70;94.10;;;;;;5048388;28;20244;-80
2020/12/15 06:44:35;;;;;;;18.70;8.77;;;6.70;94.30;;;;;;5049096;28;20252;-80
2020/12/15 06:47:05;;;;;;;20.75;8.80;;;6.80;94.20;;;;;;5048445;28;20544;-81
2020/12/15 06:49:34;;;;;;;19.50;9.05;;;6.90;94.00;;;;;;5048905;28;20161;-80
2020/12/15 06:52:03;;;;;;;17.23;8.35;;;6.90;93.90;;;;;;5049179;28;20625;-80
2020/12/15 06:54:30;;;;;;;27.70;9.60;;;6.90;93.80;;;;;;5048185;28;20179;-80
2020/12/15 06:57:08;;;;;;;16.75;10.20;;;6.90;93.70;;;;;;5048795;28;20199;-80
2020/12/15 06:59:37;;;;;;;19.88;7.97;;;6.90;93.90;;;;;;5050708;28;20525;-81
2020/12/15 07:02:15;;;;;;;23.73;10.77;;;6.90;93.90;;;;;;5038967;28;20695;-84
2020/12/15 07:04:50;;;;;;;17.58;10.10;;;6.90;94.30;;;;;;5038822;28;20228;-83
2020/12/15 07:07:16;;;;;;;17.38;8.85;;;6.90;94.10;;;;;;5039174;28;20617;-84
2020/12/15 07:09:43;;;;;;;22.50;8.85;;;6.80;94.20;;;;;;5039080;28;20201;-84
2020/12/15 07:12:12;;;;;;;18.48;9.20;;;6.80;94.20;;;;;;5111587;22;20187;-85
2020/12/15 07:14:39;;;;;;;23.25;9.95;;;6.80;94.30;;;;;;5038360;28;20280;-84
2020/12/15 07:17:04;;;;;;;20.83;10.32;;;6.80;94.20;;;;;;5038410;28;20176;-85
2020/12/15 07:19:31;;;;;;;16.70;8.80;;;6.80;94.20;;;;;;5038744;28;20177;-84
2020/12/15 07:21:56;;;;;;;24.83;9.45;;;6.80;94.50;;;;;;5038470;28;20954;-84
2020/12/15 07:24:23;;;;;;;22.60;9.27;;;6.80;94.60;;;;;;5038738;28;20204;-84
2020/12/15 07:26:49;;;;;;;30.83;10.27;;;6.80;94.60;;;;;;5038714;28;20969;-85
2020/12/15 07:29:18;;;;;;;16.70;9.52;;;6.80;94.60;;;;;;5038160;28;20173;-84
2020/12/15 07:31:44;;;;;;;19.88;8.90;;;6.80;94.30;;;;;;5038236;28;20172;-84
2020/12/15 07:34:16;;;;;;;19.03;9.40;;;6.80;94.50;;;;;;5038035;28;20173;-84
2020/12/15 07:36:44;;;;;;;18.00;9.90;;;6.80;94.40;;;;;;5038157;28;20542;-84
2020/12/15 07:39:11;;;;;;;20.17;8.50;;;6.80;94.60;;;;;;5037790;28;20264;-84
2020/12/15 07:41:37;;;;;;;19.48;9.30;;;6.90;94.30;;;;;;5037768;28;20562;-84
2020/12/15 07:44:11;;;;;;;21.80;9.80;;;6.80;94.10;;;;;;5037561;28;20197;-84
2020/12/15 07:46:43;;;;;;;25.42;9.13;;;6.80;94.30;;;;;;5037488;28;20215;-84
2020/12/15 07:49:09;;;;;;;21.55;10.00;;;6.70;94.20;;;;;;5037621;28;20162;-85
2020/12/15 07:51:37;;;;;;;20.93;9.17;;;6.70;94.20;;;;;;5037866;28;20284;-84
2020/12/15 07:54:04;;;;;;;22.77;9.65;;;6.70;94.30;;;;;;5037676;28;20180;-84
2020/12/15 07:56:31;;;;;;;21.20;9.05;;;6.70;94.30;;;;;;5036966;28;20193;-84
2020/12/15 07:58:58;;;;;;;16.25;8.93;;;6.80;93.90;;;;;;5037494;28;20200;-84
2020/12/15 08:01:28;;;;;;;15.88;8.45;;;6.80;93.90;;;;;;5037478;28;20174;-84
2020/12/15 08:04:11;;;;;;;16.63;8.68;;;6.80;94.20;;;;;;5037357;28;20193;-84
2020/12/15 08:06:42;;;;;;;22.92;11.90;;;6.80;94.40;;;;;;5037241;28;20245;-84
2020/12/15 08:09:10;;;;;;;18.58;9.85;;;6.90;94.60;;;;;;5037800;28;20169;-85
2020/12/15 08:11:37;;;;;;;19.75;8.65;;;6.90;94.90;;;;;;5037970;28;20311;-84
2020/12/15 08:14:07;;;;;;;20.42;9.65;;;7.00;94.30;;;;;;5037516;28;20193;-85
2020/12/15 08:16:33;;;;;;;18.23;8.73;;;7.00;94.50;;;;;;5037320;28;20193;-84
2020/12/15 08:19:04;;;;;;;22.50;9.32;;;7.00;94.30;;;;;;5037154;28;20184;-84
2020/12/15 08:21:46;;;;;;;18.60;9.23;;;7.00;94.30;;;;;;5037245;28;20174;-84
2020/12/15 08:24:13;;;;;;;22.98;10.13;;;7.10;94.30;;;;;;5036897;28;20258;-84
2020/12/15 08:26:42;;;;;;;20.23;9.93;;;7.10;94.00;;;;;;5036977;28;20185;-84
2020/12/15 08:29:12;;;;;;;19.77;9.15;;;7.10;94.00;;;;;;5037471;28;20565;-84
2020/12/15 08:31:40;;;;;;;18.75;8.40;;;7.10;94.20;;;;;;5037178;28;20236;-85
2020/12/15 08:34:17;;;;;;;20.33;9.57;;;7.00;94.00;;;;;;5036915;28;20173;-84
2020/12/15 08:36:45;;;;;;;30.33;10.15;;;7.00;94.10;;;;;;5037450;28;20192;-85
2020/12/15 08:39:13;;;;;;;17.75;9.38;;;7.00;93.80;;;;;;5037359;28;20177;-84
2020/12/15 08:41:55;;;;;;;20.25;9.55;;;7.00;94.30;;;;;;5036474;28;20177;-84
2020/12/15 08:44:22;;;;;;;20.60;8.85;;;7.10;93.90;;;;;;5036976;28;20185;-84
2020/12/15 08:46:50;;;;;;;19.30;9.13;;;7.10;93.70;;;;;;5036731;28;20189;-84
2020/12/15 08:49:17;;;;;;;21.65;9.90;;;7.10;93.60;;;;;;5036502;28;20179;-84
2020/12/15 08:51:44;;;;;;;18.20;9.50;;;7.00;93.50;;;;;;5036671;28;20583;-84
2020/12/15 08:54:10;;;;;;;23.95;9.20;;;7.10;93.70;;;;;;5036269;28;20176;-84
2020/12/15 08:56:36;;;;;;;22.77;9.02;;;7.10;93.40;;;;;;5036574;28;20363;-84
2020/12/15 08:59:16;;;;;;;20.47;9.17;;;7.10;93.30;;;;;;5036478;28;20180;-85
2020/12/15 09:01:43;;;;;;;21.98;9.63;;;7.10;93.50;;;;;;5036627;28;20168;-85
2020/12/15 09:04:10;;;;;;;18.83;9.80;;;7.10;93.40;;;;;;5036307;28;20259;-84
2020/12/15 09:06:40;;;;;;;19.52;9.52;;;7.00;93.80;;;;;;5036782;28;20193;-84
2020/12/15 09:09:07;;;;;;;18.80;9.57;;;7.00;93.70;;;;;;5036770;28;20647;-85
2020/12/15 09:11:34;;;;;;;24.00;10.13;;;7.00;93.70;;;;;;5037277;28;20269;-84
2020/12/15 09:14:02;;;;;;;23.08;10.57;;;7.00;93.80;;;;;;5036861;28;20192;-84
2020/12/15 09:16:39;;;;;;;23.88;10.63;;;7.00;93.80;;;;;;5036707;28;20304;-84
2020/12/15 09:19:19;;;;;;;20.92;9.60;;;7.00;94.00;;;;;;5036946;28;20248;-84
2020/12/15 09:22:02;;;;;;;21.83;9.80;;;7.00;93.90;;;;;;5036642;28;20267;-84
2020/12/15 09:24:29;;;;;;;22.75;9.63;;;7.10;93.80;;;;;;5035914;28;20236;-84
2020/12/15 09:26:55;;;;;;;27.67;11.05;;;7.10;93.70;;;;;;5036754;28;20227;-84
2020/12/15 09:29:21;;;;;;;31.00;10.82;;;7.10;93.80;;;;;;5036391;28;20180;-84
2020/12/15 09:31:52;;;;;;;21.48;10.25;;;7.10;93.70;;;;;;5036648;28;20173;-84
2020/12/15 09:34:19;;;;;;;23.63;9.73;;;7.20;93.70;;;;;;5036726;28;20679;-84
2020/12/15 09:36:56;;;;;;;22.17;11.07;;;7.20;93.60;;;;;;5036030;28;20216;-84
2020/12/15 09:39:26;;;;;;;26.88;9.60;;;7.30;93.00;;;;;;5036370;28;20185;-84
2020/12/15 09:41:52;;;;;;;20.33;9.18;;;7.30;92.60;;;;;;5036307;28;20157;-84
2020/12/15 09:44:18;;;;;;;23.58;9.90;;;7.40;92.60;;;;;;5036114;28;20334;-84
2020/12/15 09:46:44;;;;;;;21.57;12.50;;;7.40;92.60;;;;;;5035534;28;20221;-84
2020/12/15 09:49:10;;;;;;;25.58;9.50;;;7.40;92.60;;;;;;5035814;28;20447;-84
2020/12/15 09:51:36;;;;;;;19.03;8.77;;;7.40;92.60;;;;;;5036109;28;20173;-85
2020/12/15 09:54:02;;;;;;;24.00;10.10;;;7.40;92.80;;;;;;5036469;28;20422;-84
2020/12/15 09:56:28;;;;;;;18.05;9.75;;;7.50;92.70;;;;;;5035874;28;20193;-84
2020/12/15 09:58:54;;;;;;;19.13;9.43;;;7.50;92.20;;;;;;5036233;28;20240;-85
2020/12/15 10:01:20;;;;;;;25.00;9.95;;;7.60;92.30;;;;;;5036256;28;20612;-84
2020/12/15 10:03:46;;;;;;;20.95;9.32;;;7.60;92.30;;;;;;5036362;28;20197;-85
2020/12/15 10:06:16;;;;;;;18.50;9.47;;;7.60;92.50;;;;;;5035841;28;20731;-84
2020/12/15 10:08:42;;;;;;;28.10;10.90;;;7.60;91.90;;;;;;5036142;28;20415;-85
2020/12/15 10:11:13;;;;;;;24.33;10.07;;;7.70;91.70;;;;;;5035978;28;20543;-84
2020/12/15 10:13:39;;;;;;;23.60;9.45;;;7.70;91.60;;;;;;5040013;28;20226;-86
2020/12/15 10:16:05;;;;;;;24.77;10.60;;;7.60;91.80;;;;;;5039519;28;20287;-84
2020/12/15 10:18:31;;;;;;;22.13;10.27;;;7.70;91.50;;;;;;5038850;28;20415;-84
2020/12/15 10:20:56;;;;;;;26.58;10.38;;;7.60;91.90;;;;;;5037872;28;20947;-84
2020/12/15 10:23:22;;;;;;;19.60;10.17;;;7.60;91.90;;;;;;5040051;28;20173;-85
2020/12/15 10:25:48;;;;;;;27.77;10.17;;;7.70;92.30;;;;;;5036597;28;20475;-86
2020/12/15 10:28:14;;;;;;;23.80;10.40;;;7.60;92.10;;;;;;5036680;28;20808;-86
2020/12/15 10:30:39;;;;;;;22.63;9.20;;;7.70;92.20;;;;;;5035666;28;20187;-85
2020/12/15 10:33:07;;;;;;;27.53;10.03;;;7.80;91.80;;;;;;5035830;28;20415;-85
2020/12/15 10:35:33;;;;;;;27.40;10.48;;;7.90;92.10;;;;;;5037041;28;20189;-86
2020/12/15 10:37:59;;;;;;;19.92;10.05;;;8.00;92.10;;;;;;5037574;28;20169;-84
2020/12/15 10:40:24;;;;;;;24.40;10.50;;;8.10;91.20;;;;;;5035508;28;20173;-84
2020/12/15 10:42:50;;;;;;;24.23;10.30;;;8.20;91.20;;;;;;5035731;28;20173;-84
2020/12/15 10:45:17;;;;;;;17.30;8.93;;;8.30;90.80;;;;;;5035715;28;20212;-84
2020/12/15 10:47:43;;;;;;;20.50;9.73;;;8.40;90.60;;;;;;5035651;28;20252;-84
2020/12/15 10:50:10;;;;;;;22.33;10.40;;;8.40;90.10;;;;;;5035143;28;20640;-84
2020/12/15 10:52:36;;;;;;;22.20;9.77;;;8.40;89.50;;;;;;5042147;28;20224;-85
2020/12/15 10:55:03;;;;;;;21.33;10.48;;;8.50;90.20;;;;;;5037157;28;20193;-85
2020/12/15 10:57:30;;;;;;;20.85;10.23;;;8.60;90.30;;;;;;5034916;28;20177;-84
2020/12/15 10:59:56;;;;;;;23.20;9.98;;;8.70;89.50;;;;;;5035667;28;20184;-85
2020/12/15 11:02:22;;;;;;;25.43;10.17;;;8.80;89.60;;;;;;5035654;28;20174;-85
2020/12/15 11:04:47;;;;;;;21.80;10.43;;;8.90;89.60;;;;;;5038866;28;20199;-85
2020/12/15 11:07:13;;;;;;;22.57;11.10;;;9.00;89.10;;;;;;5038999;28;20416;-85
2020/12/15 11:09:39;;;;;;;22.73;12.00;;;9.00;88.30;;;;;;5039362;28;20488;-85
2020/12/15 11:12:05;;;;;;;19.20;9.90;;;9.00;88.80;;;;;;5039046;28;20418;-85
2020/12/15 11:14:32;;;;;;;26.20;11.20;;;8.90;88.50;;;;;;5039288;28;20416;-85
2020/12/15 11:16:58;;;;;;;24.58;10.75;;;8.90;88.90;;;;;;5038762;28;20432;-85
2020/12/15 11:19:24;;;;;;;24.23;10.63;;;8.90;89.10;;;;;;5038575;28;20645;-85
2020/12/15 11:21:53;;;;;;;24.03;10.37;;;9.00;89.10;;;;;;5039277;28;20230;-85
2020/12/15 11:24:18;;;;;;;24.38;10.90;;;9.00;89.10;;;;;;5038684;28;20208;-85
2020/12/15 11:26:44;;;;;;;22.00;10.70;;;9.00;89.40;;;;;;5038544;28;20661;-85
2020/12/15 11:29:10;;;;;;;17.50;10.37;;;9.00;89.90;;;;;;5038799;28;20427;-85
2020/12/15 11:31:36;;;;;;;22.80;9.93;;;9.00;90.40;;;;;;5038422;28;20404;-85
2020/12/15 11:34:02;;;;;;;20.07;9.70;;;9.00;91.10;;;;;;5038822;28;20420;-85
2020/12/15 11:36:29;;;;;;;21.03;10.63;;;9.00;91.10;;;;;;5038647;28;20197;-85
2020/12/15 11:38:55;;;;;;;22.60;9.85;;;9.00;91.50;;;;;;5039863;28;20510;-85
2020/12/15 11:41:27;;;;;;;20.33;10.23;;;9.10;91.60;;;;;;5038131;28;20205;-85
2020/12/15 11:43:53;;;;;;;19.70;10.45;;;9.10;90.70;;;;;;5037983;28;20521;-86
2020/12/15 11:46:18;;;;;;;22.40;10.15;;;9.10;91.00;;;;;;5042109;28;20193;-83
2020/12/15 11:48:44;;;;;;;24.53;12.17;;;9.20;90.80;;;;;;5038049;28;20169;-84
2020/12/15 11:51:10;;;;;;;23.17;11.13;;;9.20;90.20;;;;;;5037920;28;20928;-85
2020/12/15 11:53:36;;;;;;;17.73;10.00;;;9.20;90.60;;;;;;5037793;28;20419;-84
2020/12/15 11:56:01;;;;;;;28.40;10.37;;;9.20;89.20;;;;;;5039676;28;20272;-84
2020/12/15 11:58:27;;;;;;;20.23;9.70;;;9.20;89.10;;;;;;5047196;28;20415;-84
2020/12/15 12:00:53;;;;;;;26.30;10.83;;;9.20;88.90;;;;;;5042066;28;20415;-84
2020/12/15 12:03:19;;;;;;;25.30;10.40;;;9.20;89.50;;;;;;5040107;28;20172;-85
2020/12/15 12:05:44;;;;;;;22.70;9.70;;;9.20;89.90;;;;;;5038436;28;20196;-85
2020/12/15 12:08:10;;;;;;;22.37;11.67;;;9.30;89.60;;;;;;5039059;28;20173;-85
2020/12/15 12:10:36;;;;;;;27.30;11.23;;;9.30;89.80;;;;;;5038163;28;20415;-85
2020/12/15 12:13:02;;;;;;;18.90;10.70;;;9.30;89.60;;;;;;5037723;28;20423;-85
2020/12/15 12:15:29;;;;;;;31.20;11.03;;;9.20;89.80;;;;;;5036426;28;20198;-85
2020/12/15 12:17:55;;;;;;;23.85;11.02;;;9.20;90.60;;;;;;5037716;28;20903;-85
2020/12/15 12:20:20;;;;;;;24.23;10.17;;;9.20;90.40;;;;;;5037826;28;20208;-85
2020/12/15 12:22:46;;;;;;;24.20;11.17;;;9.10;90.80;;;;;;5037982;28;20235;-85
2020/12/15 12:25:12;;;;;;;25.77;10.65;;;9.20;91.40;;;;;;5037602;28;20451;-85
2020/12/15 12:27:38;;;;;;;27.07;11.30;;;9.20;90.80;;;;;;5037233;28;20177;-85
2020/12/15 12:30:05;;;;;;;25.10;11.23;;;9.20;91.10;;;;;;5037039;28;20176;-85
2020/12/15 12:32:30;;;;;;;20.48;9.52;;;9.30;91.10;;;;;;5037007;28;20416;-85
2020/12/15 12:34:56;;;;;;;23.07;10.30;;;9.30;90.80;;;;;;5036874;28;20180;-85
2020/12/15 12:37:22;;;;;;;23.93;12.43;;;9.30;90.80;;;;;;5036968;28;20439;-85
2020/12/15 12:39:48;;;;;;;18.37;9.80;;;9.30;91.00;;;;;;5036858;28;20173;-85
2020/12/15 12:42:14;;;;;;;19.43;9.83;;;9.20;91.30;;;;;;5036957;28;20750;-85